Terminal Aerodrome Forecast
Issued by NWS Greer, SC

Home | Current Version | Previous Version | Text Only | Print | Product List | Glossary On
Versions: 1 2 3 4 5 6 7 8 9 10 11 12 13 14 15 16 17 18 19 20 21 22 23 24 25 26 27 28 29 30 31 32 33 34 35 36 37 38 39 40 41 42 43 44 45 46 47 48 49 50
000
FTUS42 KGSP 020211 AAB
TAFCLT
TAF AMD
KCLT 020211Z 0202/0224 21005KT P6SM FEW008 SCT040 BKN100
      TEMPO 0202/0204 21010G16KT -TSRA SCT008 OVC040CB
     FM020900 21007KT P6SM BKN008
     FM021100 21006KT P6SM BKN010
     FM021300 21006KT P6SM SCT035 BKN080
     FM021800 22011G18KT P6SM SCT040 BKN200 PROB30 0218/0224 4SM
      -TSRA OVC040CB=

USA.gov is the U.S. government's official web portal to all federal, state and local government web resources and services.